createdAt,value
2023-05-17T00:03:16.851Z,14.10
2023-05-17T00:07:19.756Z,14.00
2023-05-17T00:11:22.573Z,13.80
2023-05-17T00:15:25.872Z,13.70
2023-05-17T00:19:32.674Z,13.60
2023-05-17T00:23:36.100Z,13.60
2023-05-17T00:27:39.046Z,13.50
2023-05-17T00:31:42.194Z,13.50
2023-05-17T00:35:45.726Z,13.60
2023-05-17T00:39:50.232Z,13.70
2023-05-17T00:43:56.744Z,13.70
2023-05-17T00:48:06.116Z,13.70
2023-05-17T00:52:15.242Z,13.70
2023-05-17T00:56:18.016Z,13.60
2023-05-17T01:00:21.038Z,13.60
2023-05-17T01:04:28.281Z,13.60
2023-05-17T01:08:33.079Z,13.60
2023-05-17T01:13:11.246Z,13.70
2023-05-17T01:17:29.375Z,13.80
2023-05-17T01:21:54.192Z,13.80
2023-05-17T01:26:12.385Z,13.90
2023-05-17T01:30:18.269Z,13.90
2023-05-17T01:34:30.001Z,14.00
2023-05-17T01:38:35.922Z,14.00
2023-05-17T01:42:42.102Z,14.00
2023-05-17T01:46:44.988Z,14.00
2023-05-17T01:50:54.482Z,14.10
2023-05-17T01:55:29.308Z,14.10
2023-05-17T01:59:35.228Z,14.10
2023-05-17T02:03:38.072Z,14.10
2023-05-17T02:07:43.456Z,14.10
2023-05-17T02:11:47.636Z,14.10
2023-05-17T02:15:51.316Z,14.10
2023-05-17T02:19:54.541Z,14.10
2023-05-17T02:23:58.209Z,14.10
2023-05-17T02:28:01.054Z,14.10
2023-05-17T02:32:07.552Z,14.10
2023-05-17T02:40:30.038Z,14.10
2023-05-17T02:44:32.880Z,14.10
2023-05-17T02:48:38.415Z,14.10
2023-05-17T02:57:05.898Z,14.00
2023-05-17T03:01:09.618Z,14.00
2023-05-17T03:05:15.070Z,14.00
2023-05-17T03:09:24.455Z,13.90
2023-05-17T03:13:36.145Z,13.90
2023-05-17T03:17:40.153Z,13.70
2023-05-17T03:21:45.211Z,13.70
2023-05-17T03:25:49.035Z,13.70
2023-05-17T03:29:52.293Z,13.70
2023-05-17T03:33:56.272Z,13.60
2023-05-17T03:38:01.059Z,13.60
2023-05-17T03:42:04.283Z,13.60
2023-05-17T03:46:11.723Z,13.60
2023-05-17T03:50:16.517Z,13.50
2023-05-17T03:54:42.214Z,13.50
2023-05-17T03:58:48.268Z,13.50
2023-05-17T04:02:52.887Z,13.50
2023-05-17T04:06:55.719Z,13.50
2023-05-17T04:10:59.824Z,13.50
2023-05-17T04:15:04.179Z,13.50
2023-05-17T04:19:07.255Z,13.60
2023-05-17T04:23:10.985Z,13.50
2023-05-17T04:27:27.768Z,13.50
2023-05-17T04:31:32.677Z,13.50
2023-05-17T04:35:42.919Z,13.50
2023-05-17T04:39:47.203Z,13.50
2023-05-17T04:43:50.878Z,13.60
2023-05-17T04:48:01.677Z,13.60
2023-05-17T04:52:06.504Z,13.60
2023-05-17T04:56:15.569Z,13.70
2023-05-17T05:00:22.911Z,13.70
2023-05-17T05:04:36.660Z,13.70
2023-05-17T05:08:40.034Z,13.80
2023-05-17T05:12:45.689Z,13.80
2023-05-17T05:16:48.997Z,13.90
2023-05-17T05:20:53.378Z,13.90
2023-05-17T05:25:03.558Z,13.90
2023-05-17T05:29:06.557Z,14.00
2023-05-17T05:33:09.734Z,14.00
2023-05-17T05:37:18.590Z,14.00
2023-05-17T05:41:24.308Z,14.10
2023-05-17T05:45:34.388Z,14.10
2023-05-17T05:49:41.345Z,14.10
2023-05-17T05:53:44.720Z,14.10
2023-05-17T05:57:48.479Z,14.20
2023-05-17T06:01:51.871Z,14.30
2023-05-17T06:05:56.100Z,14.30
2023-05-17T06:09:59.282Z,14.30
2023-05-17T06:14:02.611Z,14.30
2023-05-17T06:18:06.657Z,14.40
2023-05-17T06:22:18.164Z,14.50
2023-05-17T06:26:21.371Z,14.50
2023-05-17T06:30:24.463Z,14.60
2023-05-17T06:34:28.880Z,14.60
2023-05-17T06:38:31.615Z,14.70
2023-05-17T06:42:37.708Z,14.80
2023-05-17T06:46:45.030Z,14.80
2023-05-17T06:50:56.156Z,14.90
2023-05-17T06:55:01.073Z,14.90
2023-05-17T06:59:20.778Z,15.00
2023-05-17T07:03:25.321Z,15.10
2023-05-17T07:07:36.559Z,15.20
2023-05-17T07:11:41.921Z,15.40
2023-05-17T07:15:46.192Z,15.60
2023-05-17T07:19:51.220Z,15.70
2023-05-17T07:24:01.582Z,15.80
2023-05-17T07:28:05.435Z,15.90
2023-05-17T07:36:43.020Z,16.00
2023-05-17T07:40:45.919Z,15.80
2023-05-17T07:44:50.587Z,15.90
2023-05-17T07:49:00.011Z,16.00
2023-05-17T07:53:03.647Z,16.10
2023-05-17T07:57:17.169Z,16.10
2023-05-17T08:01:23.790Z,16.20
2023-05-17T08:05:27.617Z,16.20
2023-05-17T08:09:30.903Z,16.30
2023-05-17T08:13:33.891Z,16.40
2023-05-17T08:17:36.897Z,16.50
2023-05-17T08:21:40.688Z,16.50
2023-05-17T08:25:43.570Z,16.60
2023-05-17T08:29:46.435Z,16.70
2023-05-17T08:33:49.578Z,16.60
2023-05-17T08:37:52.633Z,16.70
2023-05-17T08:41:59.529Z,16.80
2023-05-17T08:46:04.238Z,16.90
2023-05-17T08:50:07.732Z,17.10
2023-05-17T08:54:10.560Z,17.20
2023-05-17T08:58:14.999Z,17.50
2023-05-17T09:02:18.612Z,17.60
2023-05-17T09:06:22.887Z,17.50
2023-05-17T09:10:25.807Z,17.50
2023-05-17T09:14:35.212Z,17.50
2023-05-17T09:18:38.330Z,17.50
2023-05-17T09:22:41.355Z,17.80
2023-05-17T09:26:45.815Z,17.80
2023-05-17T09:30:49.833Z,17.80
2023-05-17T09:34:52.840Z,17.80
2023-05-17T09:39:01.755Z,17.90
2023-05-17T09:43:06.181Z,18.00
2023-05-17T09:47:09.150Z,18.10
2023-05-17T09:51:11.980Z,18.20
2023-05-17T09:55:15.896Z,18.20
2023-05-17T09:59:20.161Z,18.10
2023-05-17T10:03:23.980Z,18.00
2023-05-17T10:07:28.203Z,18.00
2023-05-17T10:11:34.506Z,17.90
2023-05-17T10:15:38.594Z,17.80
2023-05-17T10:19:42.298Z,17.80
2023-05-17T10:23:46.744Z,17.80
2023-05-17T10:27:51.882Z,17.90
2023-05-17T10:31:55.757Z,17.80
2023-05-17T10:35:59.338Z,17.90
2023-05-17T10:40:03.533Z,18.00
2023-05-17T10:44:08.760Z,18.00
2023-05-17T10:48:11.968Z,18.00
2023-05-17T10:52:17.655Z,18.00
2023-05-17T10:56:21.906Z,18.10
2023-05-17T11:00:29.542Z,18.10
2023-05-17T11:04:33.839Z,18.10
2023-05-17T11:08:37.590Z,18.10
2023-05-17T11:12:43.375Z,18.00
2023-05-17T11:16:46.601Z,18.10
2023-05-17T11:21:08.119Z,18.20
2023-05-17T11:25:13.406Z,18.20
2023-05-17T11:29:17.970Z,18.10
2023-05-17T11:33:33.212Z,18.10
2023-05-17T11:37:36.810Z,18.20
2023-05-17T11:41:48.244Z,18.40
2023-05-17T11:45:53.928Z,18.50
2023-05-17T11:50:00.792Z,18.70
2023-05-17T11:54:04.318Z,18.80
2023-05-17T11:58:09.483Z,19.10
2023-05-17T12:02:27.798Z,19.20
2023-05-17T12:06:31.019Z,19.30
2023-05-17T12:10:35.268Z,19.40
2023-05-17T12:14:38.278Z,19.50
2023-05-17T12:18:51.816Z,19.80
2023-05-17T12:22:56.278Z,20.00
2023-05-17T12:26:59.039Z,19.90
2023-05-17T12:31:03.370Z,19.80
2023-05-17T12:35:06.498Z,20.00
2023-05-17T12:39:11.437Z,20.00
2023-05-17T12:43:14.372Z,19.90
2023-05-17T12:47:17.582Z,19.90
2023-05-17T12:51:22.721Z,19.90
2023-05-17T12:55:25.738Z,19.90
2023-05-17T12:59:29.395Z,19.80
2023-05-17T13:03:33.656Z,19.70
2023-05-17T13:07:36.483Z,19.70
2023-05-17T13:11:41.496Z,19.70
2023-05-17T13:15:49.666Z,19.50
2023-05-17T13:19:58.018Z,19.50
2023-05-17T13:24:01.582Z,19.50
2023-05-17T13:28:04.659Z,19.50
2023-05-17T13:32:08.882Z,19.50
2023-05-17T13:36:12.286Z,19.50
2023-05-17T13:40:15.563Z,19.50
2023-05-17T13:44:18.403Z,19.50
2023-05-17T13:48:21.351Z,19.40
2023-05-17T13:52:25.355Z,19.30
2023-05-17T13:56:28.201Z,19.20
2023-05-17T14:00:31.419Z,19.10
2023-05-17T14:04:35.180Z,19.10
2023-05-17T14:08:39.402Z,19.30
2023-05-17T14:12:42.482Z,19.50
2023-05-17T14:16:45.385Z,19.60
2023-05-17T14:20:48.428Z,19.70
2023-05-17T14:24:52.135Z,19.80
2023-05-17T14:28:54.952Z,20.00
2023-05-17T14:32:59.294Z,20.20
2023-05-17T14:37:02.577Z,20.40
2023-05-17T14:41:06.834Z,20.50
2023-05-17T14:45:10.059Z,20.50
2023-05-17T14:49:14.035Z,20.50
2023-05-17T14:53:17.247Z,20.50
2023-05-17T14:57:21.502Z,20.20
2023-05-17T15:01:24.406Z,19.90
2023-05-17T15:05:28.403Z,19.70
2023-05-17T15:09:31.672Z,19.60
2023-05-17T15:13:34.705Z,19.40
2023-05-17T15:17:37.659Z,19.20
2023-05-17T15:21:40.538Z,19.10
2023-05-17T15:25:43.351Z,19.00
2023-05-17T15:29:49.939Z,18.80
2023-05-17T15:33:52.729Z,18.80
2023-05-17T15:37:57.208Z,18.60
2023-05-17T15:42:00.215Z,18.50
2023-05-17T15:46:03.160Z,18.40
2023-05-17T15:50:07.296Z,18.30
2023-05-17T15:54:10.104Z,18.20
2023-05-17T15:58:15.412Z,18.20
2023-05-17T16:02:19.354Z,18.20
2023-05-17T16:06:22.439Z,18.10
2023-05-17T16:10:25.598Z,18.00
2023-05-17T16:14:28.628Z,18.00
2023-05-17T16:18:32.882Z,18.00
2023-05-17T16:22:36.086Z,18.00
2023-05-17T16:26:39.652Z,17.90
2023-05-17T16:30:42.665Z,17.80
2023-05-17T16:34:45.657Z,17.70
2023-05-17T16:38:49.567Z,17.60
2023-05-17T16:42:52.426Z,17.50
2023-05-17T16:46:55.315Z,17.40
2023-05-17T16:50:59.758Z,17.40
2023-05-17T16:55:03.327Z,17.30
2023-05-17T16:59:07.372Z,17.30
2023-05-17T17:03:10.643Z,17.20
2023-05-17T17:07:13.526Z,17.20
2023-05-17T17:11:21.741Z,17.20
2023-05-17T17:15:25.599Z,17.20
2023-05-17T17:19:28.474Z,17.10
2023-05-17T17:23:31.312Z,17.00
2023-05-17T17:27:35.636Z,17.00
2023-05-17T17:31:39.407Z,17.00
2023-05-17T17:35:42.308Z,17.00
2023-05-17T17:39:45.755Z,17.00
2023-05-17T17:43:49.370Z,17.00
2023-05-17T17:47:52.271Z,17.00
2023-05-17T17:51:55.987Z,17.00
2023-05-17T17:55:58.823Z,17.00
2023-05-17T18:00:02.123Z,17.00
2023-05-17T18:04:06.111Z,16.90
2023-05-17T18:08:08.951Z,16.80
2023-05-17T18:12:11.854Z,16.80
2023-05-17T18:16:14.740Z,16.70
2023-05-17T18:20:19.874Z,16.70
2023-05-17T18:24:22.812Z,16.60
2023-05-17T18:28:38.289Z,16.60
2023-05-17T18:32:45.477Z,16.60
2023-05-17T18:36:48.597Z,16.60
2023-05-17T18:40:51.408Z,16.50
2023-05-17T18:44:54.710Z,16.50
2023-05-17T18:48:57.734Z,16.50
2023-05-17T18:53:00.708Z,16.50
2023-05-17T18:57:04.019Z,16.50
2023-05-17T19:01:06.914Z,16.40
2023-05-17T19:05:24.430Z,16.40
2023-05-17T19:09:29.689Z,16.40
2023-05-17T19:13:40.320Z,16.30
2023-05-17T19:17:45.407Z,16.30
2023-05-17T19:21:53.411Z,16.30
2023-05-17T19:25:59.971Z,16.30
2023-05-17T19:30:09.390Z,16.30
2023-05-17T19:34:14.890Z,16.20
2023-05-17T19:38:18.876Z,16.20
2023-05-17T19:42:27.607Z,16.20
2023-05-17T19:46:39.022Z,16.20
2023-05-17T19:50:53.262Z,16.20
2023-05-17T19:55:01.078Z,16.20
2023-05-17T19:59:08.346Z,16.10
2023-05-17T20:03:49.198Z,16.10
2023-05-17T20:08:06.665Z,16.10
2023-05-17T20:12:27.775Z,16.10
2023-05-17T20:16:42.207Z,16.00
2023-05-17T20:20:54.268Z,16.00
2023-05-17T20:24:59.377Z,16.00
2023-05-17T20:29:08.331Z,16.00
2023-05-17T20:33:31.574Z,16.00
2023-05-17T20:37:42.956Z,16.00
2023-05-17T20:41:52.773Z,15.90
2023-05-17T20:45:58.320Z,15.90
2023-05-17T20:50:15.562Z,15.90
2023-05-17T20:54:28.702Z,15.90
2023-05-17T20:58:32.726Z,15.90
2023-05-17T21:02:41.507Z,15.80
2023-05-17T21:07:05.718Z,15.80
2023-05-17T21:11:21.392Z,15.80
2023-05-17T21:15:27.003Z,15.80
2023-05-17T21:19:33.663Z,15.70
2023-05-17T21:23:39.766Z,15.70
2023-05-17T21:27:44.891Z,15.70
2023-05-17T21:31:49.985Z,15.60
2023-05-17T21:35:53.158Z,15.50
2023-05-17T21:40:01.165Z,15.50
2023-05-17T21:44:05.110Z,15.50
2023-05-17T21:48:11.317Z,15.50
2023-05-17T21:52:14.693Z,15.50
2023-05-17T21:56:17.657Z,15.50
2023-05-17T22:00:20.875Z,15.50
2023-05-17T22:04:23.696Z,15.50
2023-05-17T22:08:36.569Z,15.50
2023-05-17T22:12:41.360Z,15.50
2023-05-17T22:16:45.247Z,15.50
2023-05-17T22:20:50.669Z,15.50
2023-05-17T22:24:58.397Z,15.50
2023-05-17T22:29:03.924Z,15.50
2023-05-17T22:33:07.177Z,15.50
2023-05-17T22:37:11.037Z,15.50
2023-05-17T22:41:14.038Z,15.50
2023-05-17T22:45:18.272Z,15.40
2023-05-17T22:49:42.372Z,15.40
2023-05-17T22:53:58.616Z,15.40
2023-05-17T22:58:02.509Z,15.30
2023-05-17T23:02:11.175Z,15.30
2023-05-17T23:06:22.901Z,15.20
2023-05-17T23:10:29.376Z,15.20
2023-05-17T23:14:38.483Z,15.10
2023-05-17T23:18:56.562Z,15.20
2023-05-17T23:23:02.468Z,15.10
2023-05-17T23:27:10.296Z,15.10
2023-05-17T23:31:17.287Z,15.10
2023-05-17T23:35:20.525Z,15.00
2023-05-17T23:39:24.038Z,15.00
2023-05-17T23:43:28.227Z,15.00
2023-05-17T23:47:34.525Z,15.00
2023-05-17T23:51:43.154Z,15.00
2023-05-17T23:55:48.343Z,14.90
2023-05-17T23:59:53.427Z,15.00
